Terminal Aerodrome Forecast
Issued by NWS Tampa Bay Area, FL

Home | Current Version | Previous Version | Text Only | Print | Product List | Glossary On
Versions: 1 2 3 4 5 6 7 8 9 10 11 12 13 14 15 16 17 18 19 20 21 22 23 24 25 26 27 28 29 30 31 32 33 34 35 36 37 38 39 40 41
000
FTUS42 KTBW 201100
TAFTPA
TAF
KTPA 201120Z 2012/2112 35008KT P6SM SCT010 BKN035
      TEMPO 2012/2014 6SM BR SCT007 BKN010
     FM201400 34009KT P6SM SCT015 BKN035
     FM201700 33010KT P6SM SCT025 BKN050
     FM210000 01006KT P6SM SCT050 SCT250=

USA.gov is the U.S. government's official web portal to all federal, state and local government web resources and services.